BURGAS current weather conditions

sailwx.info

Last reported at 2017-Jan-20 14:33 UTC.
Time now 2017-Feb-21 07:57 UTC

Location: N 42°34' E 027°31'.
View on Google Maps.

See reports from other nearby stations

  
Tides and Currents Weather Stations Pressure Air Temp Water Temp Dewpoint Dewpoint Depression Visibility Wind Speed Wind Dir Waves Ship Positions
date/time (UTC)wind fromknots sea level pressurealtimeterstation pressurevisibilityair tempwater tempwave heightnotes
2017-Feb-21 06:30 240 9 3.2 1.0
2017-Feb-21 06:00 240 9 3.2 1.0
2017-Feb-21 05:30 250 8 2.7-0.0 Mist.
2017-Feb-21 05:00 250 7 3.2-0.0
2017-Feb-21 04:30 250 9 4.9-0.0
2017-Feb-21 04:00 240 9 4.9-0.0
2017-Feb-21 03:30 230 13 4.9 1.0
2017-Feb-21 03:00 220 6 4.9-0.0
2017-Feb-21 02:30 230 8 4.9-0.0
2017-Feb-21 02:00 240 5 5.4 1.0
2017-Feb-21 01:30 240 9 5.4 1.0
2017-Feb-21 01:00 250 8 5.4 1.0
2017-Feb-21 00:30 240 6 5.4 1.0
2017-Feb-21 00:00 230 7 5.4 1.0
2017-Feb-20 23:30 220 7 4.9 1.0
2017-Feb-20 23:00 220 6 5.4 1.0
2017-Feb-20 22:30 5.4 3.0
2017-Feb-20 22:00 5.4 3.0
2017-Feb-20 21:30 240 6 5.4 2.0
2017-Feb-20 21:00 260 4 5.4 4.0
2017-Feb-20 20:30 5.4 3.0
2017-Feb-20 20:00 270 6 5.4 3.0
2017-Feb-20 19:30 240 7 5.4 4.0
2017-Feb-20 19:00 230 7 5.4 4.0
2017-Feb-20 18:30 230 6 5.4 5.0
2017-Feb-20 18:00 210 4 5.4 6.0
2017-Feb-20 17:30 210 2 5.4 6.0
2017-Feb-20 17:00 250 5 5.4 6.0
2017-Feb-20 16:30 310 6 5.4 6.0
2017-Feb-20 16:00 270 7 5.4 7.0
2017-Feb-20 15:30 270 9 5.4 7.0
2017-Feb-20 15:00 260 13 5.4 7.0
2017-Feb-20 14:30 250 14 5.4 8.0
2017-Feb-20 14:00 260 15 5.4 8.0
2017-Feb-20 13:30 260 17 5.4 8.0
2017-Feb-20 13:00 250 13 5.4 8.0
2017-Feb-20 12:30 250 13 5.4 7.0
2017-Feb-20 12:00 250 14 5.4 6.0
2017-Feb-20 11:30 250 12 5.4 5.0 Light rain.
2017-Feb-20 11:00 270 14 5.4 5.0 Light drizzle.
2017-Feb-20 10:30 260 13 5.4 4.0
2017-Feb-20 10:00 260 14 5.4 5.0
2017-Feb-20 09:30 270 12 5.4 5.0 Light rain.
2017-Feb-20 09:00 260 12 5.4 5.0 Light rain.
2017-Feb-20 08:30 270 12 5.4 4.0 Light rain.
2017-Feb-20 08:00 270 13 5.4 4.0 Light rain.
2017-Feb-20 07:30 250 9 5.4 4.0 Light rain.
2017-Feb-20 07:00 280 8 5.4 4.0
2017-Feb-20 06:30 290 6 4.9 4.0
2017-Feb-20 06:00 300 7 5.4 4.0
2017-Feb-20 05:30 310 12 4.9 4.0 Light rain.
2017-Feb-20 05:00 260 4 5.4 5.0
2017-Feb-20 04:30 270 2 5.4 5.0
2017-Feb-20 04:00 5.4 5.0 Light rain.
2017-Feb-20 03:30 260 5 5.4 5.0 Light rain.
2017-Feb-20 03:00 340 6 4.9 5.0 Light rain.
2017-Feb-20 02:30 330 6 5.4 5.0 Light rain.
2017-Feb-20 02:00 320 5 5.4 5.0
2017-Feb-20 01:30 340 9 5.4 5.0
2017-Feb-20 01:00 350 7 5.4 6.0 Light rain.
2017-Feb-20 00:30 050 8 1.8 6.0 Light rain. Mist.
2017-Feb-20 00:00 030 7 1.2 5.0 Light rain. Mist.
2017-Feb-19 23:30 040 7 0.5 5.0 Light rain. Fog.
2017-Feb-19 23:00 090 6 0.7 5.0 Light rain. Mist.
2017-Feb-19 22:30 090 6 0.7 5.0 Light rain. Mist.
2017-Feb-19 22:00 090 7 0.5 5.0 Light rain. Fog.
2017-Feb-19 21:30 100 7 1.1 6.0 Light rain. Mist.
2017-Feb-19 21:00 100 8 1.4 6.0 Light rain. Mist.
2017-Feb-19 20:30 100 7 1.6 6.0 Light rain. Mist.
2017-Feb-19 20:00 120 8 0.5 6.0 Light rain. Fog.
2017-Feb-19 19:30 100 7 1.9 6.0 Light rain. Mist.
2017-Feb-19 19:00 090 9 1.9 6.0 Light rain. Mist.
2017-Feb-19 18:30 100 8 1.6 6.0 Light rain. Mist.
2017-Feb-19 18:00 090 11 1.7 6.0 Rain. Mist.
2017-Feb-19 17:30 100 12 1.1 6.0 Light rain. Mist.
2017-Feb-19 17:00 120 9 0.6 5.0 Light rain. Mist.
2017-Feb-19 16:30 120 6 0.9 6.0 Rain. Mist.
2017-Feb-19 16:00 180 6 0.8 6.0 Rain. Mist.
2017-Feb-19 15:30 090 7 1.3 7.0 Rain. Mist.
2017-Feb-19 15:00 100 9 1.0 7.0 Rain. Mist.
2017-Feb-19 14:30 110 7 0.6 6.0 Rain. Mist.
2017-Feb-19 14:00 130 9 0.9 7.0 Rain. Mist.
2017-Feb-19 13:30 130 8 1.9 8.0 Mist.
2017-Feb-19 13:00 130 7 2.1 9.0 Mist.
2017-Feb-19 12:30 130 11 2.3 9.0 Mist.
2017-Feb-19 12:00 130 8 2.110.0 Mist.
2017-Feb-19 11:30 120 7 2.5 9.0 Mist.
2017-Feb-19 11:00 140 6 1.9 9.0 Mist.
2017-Feb-19 10:30 120 6 2.5 9.0 Mist.
2017-Feb-19 10:00 140 6 1.9 6.0 Mist.
2017-Feb-19 09:30 150 6 2.1 8.0 Mist.
2017-Feb-19 09:00 130 6 3.2 8.0
2017-Feb-19 08:30 120 5 2.7 8.0 Mist.
2017-Feb-19 08:00 090 4 2.7 7.0 Mist.
2017-Feb-19 07:30 090 4 2.7 6.0 Mist.
2017-Feb-19 07:00 070 4 2.6 6.0 Mist.